createdAt,value
2023-04-15T00:01:06.049Z,19.48
2023-04-15T00:03:34.688Z,18.30
2023-04-15T00:06:01.742Z,18.35
2023-04-15T00:08:29.120Z,18.27
2023-04-15T00:10:55.748Z,17.63
2023-04-15T00:13:22.435Z,18.42
2023-04-15T00:15:49.136Z,27.25
2023-04-15T00:18:15.775Z,21.40
2023-04-15T00:20:42.435Z,16.30
2023-04-15T00:23:09.576Z,16.33
2023-04-15T00:25:36.172Z,19.92
2023-04-15T00:28:02.784Z,17.30
2023-04-15T00:30:29.396Z,17.75
2023-04-15T00:32:56.054Z,24.80
2023-04-15T00:35:24.096Z,18.73
2023-04-15T00:37:51.493Z,21.88
2023-04-15T00:40:21.081Z,24.23
2023-04-15T00:42:48.189Z,24.33
2023-04-15T00:45:15.692Z,22.35
2023-04-15T00:47:43.592Z,19.33
2023-04-15T00:50:11.366Z,18.63
2023-04-15T00:52:38.335Z,19.10
2023-04-15T00:55:06.200Z,21.38
2023-04-15T00:57:33.403Z,21.20
2023-04-15T01:00:01.190Z,24.60
2023-04-15T01:02:28.213Z,19.80
2023-04-15T01:04:56.817Z,18.83
2023-04-15T01:07:23.548Z,20.90
2023-04-15T01:09:50.293Z,21.17
2023-04-15T01:12:17.647Z,19.75
2023-04-15T01:14:46.428Z,22.45
2023-04-15T01:17:13.393Z,20.35
2023-04-15T01:19:40.846Z,20.27
2023-04-15T01:22:07.591Z,18.42
2023-04-15T01:24:35.890Z,19.13
2023-04-15T01:27:02.605Z,20.80
2023-04-15T01:29:29.680Z,18.70
2023-04-15T01:31:56.984Z,19.38
2023-04-15T01:34:23.869Z,23.05
2023-04-15T01:36:51.226Z,20.67
2023-04-15T01:39:17.945Z,19.50
2023-04-15T01:41:44.722Z,18.55
2023-04-15T01:44:11.658Z,15.23
2023-04-15T01:46:38.379Z,15.48
2023-04-15T01:49:05.053Z,16.98
2023-04-15T01:51:32.196Z,17.20
2023-04-15T01:53:58.931Z,17.23
2023-04-15T01:56:25.566Z,16.88
2023-04-15T01:58:52.917Z,19.20
2023-04-15T02:01:20.250Z,18.02
2023-04-15T02:03:48.058Z,16.33
2023-04-15T02:06:15.066Z,15.85
2023-04-15T02:08:41.712Z,19.80
2023-04-15T02:11:08.528Z,16.30
2023-04-15T02:13:35.326Z,17.25
2023-04-15T02:16:03.427Z,18.67
2023-04-15T02:18:30.154Z,15.20
2023-04-15T02:20:58.710Z,16.67
2023-04-15T02:23:25.626Z,16.15
2023-04-15T02:25:53.848Z,20.58
2023-04-15T02:28:21.775Z,16.65
2023-04-15T02:30:53.062Z,20.33
2023-04-15T02:33:21.078Z,17.40
2023-04-15T02:35:47.765Z,17.15
2023-04-15T02:38:16.910Z,17.38
2023-04-15T02:40:43.517Z,17.77
2023-04-15T02:43:10.118Z,18.25
2023-04-15T02:45:36.892Z,17.38
2023-04-15T02:48:06.296Z,16.17
2023-04-15T02:50:33.479Z,19.50
2023-04-15T02:53:01.763Z,19.92
2023-04-15T02:55:29.040Z,17.10
2023-04-15T02:57:55.892Z,17.63
2023-04-15T03:00:25.346Z,14.98
2023-04-15T03:02:56.581Z,19.38
2023-04-15T03:05:26.556Z,18.55
2023-04-15T03:07:53.645Z,19.13
2023-04-15T03:10:20.869Z,17.27
2023-04-15T03:12:47.720Z,15.55
2023-04-15T03:15:14.539Z,15.20
2023-04-15T03:17:41.407Z,17.42
2023-04-15T03:20:08.853Z,17.25
2023-04-15T03:22:35.573Z,15.25
2023-04-15T03:25:03.573Z,20.90
2023-04-15T03:27:30.200Z,17.90
2023-04-15T03:29:56.925Z,18.13
2023-04-15T03:32:23.621Z,17.08
2023-04-15T03:34:50.377Z,21.77
2023-04-15T03:37:17.077Z,18.10
2023-04-15T03:39:43.705Z,21.10
2023-04-15T03:42:10.325Z,20.85
2023-04-15T03:44:37.393Z,19.15
2023-04-15T03:47:04.009Z,20.58
2023-04-15T03:49:30.873Z,20.67
2023-04-15T03:51:57.514Z,21.52
2023-04-15T03:54:24.165Z,22.15
2023-04-15T03:56:51.080Z,20.58
2023-04-15T03:59:17.719Z,23.67
2023-04-15T04:01:44.474Z,24.63
2023-04-15T04:04:12.753Z,28.70
2023-04-15T04:06:39.555Z,27.75
2023-04-15T04:09:06.183Z,38.20
2023-04-15T04:11:33.158Z,26.75
2023-04-15T04:13:59.789Z,27.52
2023-04-15T04:16:26.607Z,24.88
2023-04-15T04:18:53.419Z,31.08
2023-04-15T04:21:21.082Z,30.85
2023-04-15T04:23:47.793Z,39.08
2023-04-15T04:26:14.468Z,29.70
2023-04-15T04:28:41.077Z,30.42
2023-04-15T04:31:08.065Z,31.88
2023-04-15T04:33:34.770Z,31.27
2023-04-15T04:36:01.539Z,34.15
2023-04-15T04:38:28.218Z,34.38
2023-04-15T04:40:54.883Z,32.28
2023-04-15T04:43:21.643Z,32.15
2023-04-15T04:45:48.253Z,33.70
2023-04-15T04:48:15.040Z,30.48
2023-04-15T04:50:42.008Z,30.25
2023-04-15T04:53:09.030Z,37.70
2023-04-15T04:55:37.125Z,25.52
2023-04-15T04:58:03.874Z,27.48
2023-04-15T05:00:30.595Z,30.35
2023-04-15T05:02:57.550Z,28.77
2023-04-15T05:05:24.268Z,28.25
2023-04-15T05:07:51.259Z,30.05
2023-04-15T05:10:18.426Z,24.98
2023-04-15T05:12:45.084Z,24.02
2023-04-15T05:15:12.186Z,22.52
2023-04-15T05:17:38.877Z,18.60
2023-04-15T05:20:06.098Z,22.17
2023-04-15T05:22:32.854Z,16.98
2023-04-15T05:24:59.476Z,15.70
2023-04-15T05:27:26.168Z,17.58
2023-04-15T05:29:52.772Z,15.55
2023-04-15T05:32:19.435Z,13.02
2023-04-15T05:34:46.341Z,14.85
2023-04-15T05:37:13.092Z,15.82
2023-04-15T05:39:39.909Z,14.10
2023-04-15T05:42:06.912Z,14.02
2023-04-15T05:44:33.523Z,14.63
2023-04-15T05:47:00.302Z,19.42
2023-04-15T05:49:27.565Z,13.10
2023-04-15T05:51:54.300Z,14.80
2023-04-15T05:54:23.321Z,15.98
2023-04-15T05:56:50.010Z,13.73
2023-04-15T05:59:16.875Z,12.80
2023-04-15T06:01:43.944Z,14.35
2023-04-15T06:04:11.674Z,15.35
2023-04-15T06:06:38.745Z,16.00
2023-04-15T06:09:05.463Z,11.45
2023-04-15T06:11:32.190Z,11.93
2023-04-15T06:13:58.792Z,14.30
2023-04-15T06:16:25.495Z,14.70
2023-04-15T06:18:52.179Z,12.73
2023-04-15T06:21:19.360Z,13.57
2023-04-15T06:23:46.511Z,14.82
2023-04-15T06:26:13.133Z,17.10
2023-04-15T06:28:39.788Z,21.30
2023-04-15T06:31:06.479Z,17.10
2023-04-15T06:33:33.169Z,16.92
2023-04-15T06:35:59.736Z,36.97
2023-04-15T06:38:26.590Z,22.33
2023-04-15T06:40:53.257Z,14.25
2023-04-15T06:43:20.920Z,10.93
2023-04-15T06:45:47.639Z,13.38
2023-04-15T06:48:14.456Z,10.63
2023-04-15T06:50:41.355Z,11.38
2023-04-15T06:53:08.044Z,10.82
2023-04-15T06:55:34.700Z,8.10
2023-04-15T06:58:01.420Z,9.57
2023-04-15T07:00:28.800Z,11.45
2023-04-15T07:02:55.999Z,10.00
2023-04-15T07:05:22.778Z,9.82
2023-04-15T07:07:49.364Z,9.25
2023-04-15T07:10:16.143Z,11.32
2023-04-15T07:12:42.806Z,10.93
2023-04-15T07:15:10.042Z,15.35
2023-04-15T07:17:37.199Z,11.02
2023-04-15T07:20:05.021Z,11.45
2023-04-15T07:22:31.672Z,10.75
2023-04-15T07:24:58.263Z,10.65
2023-04-15T07:27:24.880Z,11.25
2023-04-15T07:29:52.176Z,12.80
2023-04-15T07:32:19.172Z,9.75
2023-04-15T07:34:45.885Z,9.32
2023-04-15T07:37:12.727Z,10.45
2023-04-15T07:39:39.383Z,9.50
2023-04-15T07:42:06.041Z,10.93
2023-04-15T07:44:32.732Z,7.70
2023-04-15T07:46:59.423Z,8.63
2023-04-15T07:49:26.118Z,8.52
2023-04-15T07:51:53.274Z,10.95
2023-04-15T07:54:19.978Z,11.55
2023-04-15T07:56:46.603Z,15.05
2023-04-15T07:59:13.282Z,11.85
2023-04-15T08:01:39.887Z,15.18
2023-04-15T08:04:06.705Z,12.10
2023-04-15T08:06:33.466Z,9.55
2023-04-15T08:09:00.533Z,8.35
2023-04-15T08:11:27.891Z,8.73
2023-04-15T08:13:54.664Z,8.35
2023-04-15T08:16:23.568Z,5.78
2023-04-15T08:18:52.297Z,7.00
2023-04-15T08:21:20.133Z,5.53
2023-04-15T08:23:48.478Z,11.18
2023-04-15T08:26:15.264Z,13.38
2023-04-15T08:28:43.038Z,5.93
2023-04-15T08:31:09.945Z,9.57
2023-04-15T08:33:36.978Z,5.32
2023-04-15T08:36:04.587Z,10.43
2023-04-15T08:38:31.435Z,7.30
2023-04-15T08:41:00.405Z,6.10
2023-04-15T08:43:40.194Z,15.70
2023-04-15T08:48:35.910Z,6.78
2023-04-15T08:51:03.214Z,9.30
2023-04-15T08:53:30.633Z,6.70
2023-04-15T08:55:58.963Z,7.53
2023-04-15T08:58:26.304Z,7.47
2023-04-15T09:00:53.221Z,7.53
2023-04-15T09:03:21.933Z,6.45
2023-04-15T09:05:48.677Z,6.95
2023-04-15T09:08:15.825Z,5.90
2023-04-15T09:10:42.722Z,7.18
2023-04-15T09:13:09.529Z,6.07
2023-04-15T09:15:39.002Z,6.70
2023-04-15T09:18:07.007Z,5.82
2023-04-15T09:20:42.451Z,7.93
2023-04-15T09:23:14.366Z,9.23
2023-04-15T09:25:45.832Z,5.72
2023-04-15T09:28:13.552Z,7.03
2023-04-15T09:30:46.609Z,8.27
2023-04-15T09:33:14.827Z,5.13
2023-04-15T09:35:41.533Z,6.07
2023-04-15T09:38:09.908Z,8.40
2023-04-15T09:40:39.580Z,6.80
2023-04-15T09:43:07.824Z,6.13
2023-04-15T09:45:36.472Z,3.92
2023-04-15T09:48:26.884Z,4.70
2023-04-15T09:50:57.669Z,5.88
2023-04-15T09:53:26.102Z,6.80
2023-04-15T09:55:58.142Z,6.40
2023-04-15T09:58:35.733Z,6.50
2023-04-15T10:01:04.784Z,5.03
2023-04-15T10:03:34.419Z,4.10
2023-04-15T10:06:02.183Z,4.78
2023-04-15T10:08:31.040Z,4.10
2023-04-15T10:10:57.995Z,6.63
2023-04-15T10:13:28.698Z,6.40
2023-04-15T10:15:58.849Z,4.50
2023-04-15T10:18:28.085Z,5.65
2023-04-15T10:20:55.636Z,4.72
2023-04-15T10:23:24.615Z,3.13
2023-04-15T10:25:54.498Z,3.83
2023-04-15T10:28:22.978Z,3.95
2023-04-15T10:30:50.166Z,5.68
2023-04-15T10:33:26.677Z,5.07
2023-04-15T10:35:55.765Z,6.35
2023-04-15T10:38:42.829Z,4.68
2023-04-15T10:41:34.679Z,2.92
2023-04-15T10:44:04.835Z,3.67
2023-04-15T10:46:39.183Z,3.53
2023-04-15T10:49:11.393Z,4.32
2023-04-15T10:51:42.122Z,7.43
2023-04-15T10:54:17.598Z,10.07
2023-04-15T10:57:11.776Z,3.30
2023-04-15T10:59:59.756Z,2.78
2023-04-15T11:02:48.822Z,3.80
2023-04-15T11:05:17.379Z,3.40
2023-04-15T11:07:49.692Z,4.78
2023-04-15T11:10:25.941Z,5.03
2023-04-15T11:12:54.878Z,4.25
2023-04-15T11:15:39.064Z,3.53
2023-04-15T11:18:12.719Z,5.05
2023-04-15T11:20:47.320Z,5.15
2023-04-15T11:23:19.281Z,6.88
2023-04-15T11:25:46.395Z,5.82
2023-04-15T11:28:14.419Z,3.92
2023-04-15T11:30:42.606Z,3.45
2023-04-15T11:33:12.148Z,4.53
2023-04-15T11:35:40.973Z,5.60
2023-04-15T11:38:13.151Z,9.05
2023-04-15T11:40:40.959Z,5.68
2023-04-15T11:43:17.162Z,5.80
2023-04-15T11:45:53.119Z,5.65
2023-04-15T11:48:22.145Z,6.32
2023-04-15T11:51:06.294Z,5.77
2023-04-15T11:53:42.922Z,4.70
2023-04-15T11:56:11.678Z,4.13
2023-04-15T11:58:42.595Z,4.20
2023-04-15T12:01:09.195Z,6.88
2023-04-15T12:03:41.136Z,3.50
2023-04-15T12:06:14.267Z,4.55
2023-04-15T12:08:59.185Z,6.45
2023-04-15T12:11:47.486Z,3.72
2023-04-15T12:14:26.545Z,5.72
2023-04-15T12:16:58.245Z,3.70
2023-04-15T12:19:27.693Z,4.88
2023-04-15T12:22:02.292Z,5.32
2023-04-15T12:24:33.188Z,4.45
2023-04-15T12:27:04.628Z,3.50
2023-04-15T12:29:32.794Z,4.45
2023-04-15T12:32:09.130Z,6.38
2023-04-15T12:34:40.604Z,4.07
2023-04-15T12:37:12.103Z,4.18
2023-04-15T12:39:41.530Z,3.70
2023-04-15T12:42:08.948Z,4.13
2023-04-15T12:44:36.796Z,2.55
2023-04-15T12:47:03.631Z,2.78
2023-04-15T12:49:31.179Z,5.70
2023-04-15T12:52:00.216Z,6.78
2023-04-15T12:54:27.986Z,21.20
2023-04-15T12:56:55.476Z,4.45
2023-04-15T12:59:23.846Z,6.95
2023-04-15T13:01:52.339Z,8.20
2023-04-15T13:04:20.785Z,5.70
2023-04-15T13:06:47.642Z,9.38
2023-04-15T13:09:15.723Z,3.65
2023-04-15T13:11:42.622Z,4.22
2023-04-15T13:14:11.784Z,3.72
2023-04-15T13:16:38.714Z,4.05
2023-04-15T13:19:05.617Z,6.93
2023-04-15T13:21:35.489Z,4.20
2023-04-15T13:24:03.102Z,3.22
2023-04-15T13:26:29.994Z,3.53
2023-04-15T13:28:56.740Z,4.85
2023-04-15T13:31:23.401Z,3.78
2023-04-15T13:33:50.077Z,5.63
2023-04-15T13:36:16.727Z,4.85
2023-04-15T13:38:43.673Z,6.65
2023-04-15T13:41:10.554Z,5.70
2023-04-15T13:43:37.671Z,7.88
2023-04-15T13:46:04.505Z,9.73
2023-04-15T13:48:31.647Z,6.47
2023-04-15T13:50:58.277Z,5.45
2023-04-15T13:53:37.700Z,4.78
2023-04-15T13:56:09.600Z,4.65
2023-04-15T13:58:37.400Z,4.78
2023-04-15T14:01:06.062Z,6.15
2023-04-15T14:03:34.525Z,9.63
2023-04-15T14:06:01.458Z,6.95
2023-04-15T14:08:28.047Z,6.47
2023-04-15T14:10:54.632Z,12.48
2023-04-15T14:13:21.338Z,5.05
2023-04-15T14:15:47.981Z,13.82
2023-04-15T14:18:14.632Z,4.45
2023-04-15T14:20:41.300Z,5.82
2023-04-15T14:23:08.080Z,4.63
2023-04-15T14:25:34.750Z,5.40
2023-04-15T14:28:02.402Z,4.43
2023-04-15T14:30:29.015Z,5.40
2023-04-15T14:32:55.773Z,5.68
2023-04-15T14:35:24.721Z,11.25
2023-04-15T14:37:51.590Z,6.57
2023-04-15T14:40:18.246Z,6.30
2023-04-15T14:42:44.950Z,9.93
2023-04-15T14:45:11.745Z,7.22
2023-04-15T14:47:38.482Z,6.53
2023-04-15T14:50:08.079Z,5.85
2023-04-15T14:52:38.727Z,3.80
2023-04-15T14:55:07.582Z,4.43
2023-04-15T14:57:34.266Z,4.90
2023-04-15T15:00:00.865Z,5.28
2023-04-15T15:02:38.536Z,5.93
2023-04-15T15:05:07.276Z,5.57
2023-04-15T15:07:34.140Z,4.82
2023-04-15T15:10:00.828Z,5.20
2023-04-15T15:12:27.566Z,5.25
2023-04-15T15:14:55.975Z,7.97
2023-04-15T15:17:22.814Z,5.75
2023-04-15T15:19:49.471Z,7.97
2023-04-15T15:22:16.266Z,8.75
2023-04-15T15:24:42.891Z,5.57
2023-04-15T15:27:10.048Z,8.15
2023-04-15T15:29:37.908Z,5.97
2023-04-15T15:32:04.662Z,6.43
2023-04-15T15:34:34.183Z,6.05
2023-04-15T15:37:00.942Z,5.45
2023-04-15T15:39:28.093Z,6.50
2023-04-15T15:41:55.160Z,8.25
2023-04-15T15:44:21.789Z,7.10
2023-04-15T15:46:49.998Z,7.43
2023-04-15T15:49:16.687Z,6.70
2023-04-15T15:51:43.558Z,6.55
2023-04-15T15:54:12.266Z,6.68
2023-04-15T15:56:39.537Z,6.63
2023-04-15T15:59:06.507Z,5.20
2023-04-15T16:01:33.408Z,7.18
2023-04-15T16:04:01.003Z,7.32
2023-04-15T16:06:28.196Z,8.88
2023-04-15T16:08:54.951Z,8.00
2023-04-15T16:11:21.568Z,7.88
2023-04-15T16:13:48.255Z,8.88
2023-04-15T16:16:15.242Z,8.65
2023-04-15T16:18:41.896Z,6.82
2023-04-15T16:21:08.824Z,10.38
2023-04-15T16:23:36.720Z,7.47
2023-04-15T16:26:06.681Z,11.80
2023-04-15T16:30:59.981Z,11.65
2023-04-15T16:33:26.996Z,9.52
2023-04-15T16:35:53.728Z,16.20
2023-04-15T16:38:20.857Z,27.60
2023-04-15T16:40:47.573Z,27.05
2023-04-15T16:43:14.199Z,32.92
2023-04-15T16:45:40.948Z,38.97
2023-04-15T16:48:07.586Z,59.78
2023-04-15T16:50:34.231Z,80.90
2023-04-15T16:53:01.607Z,81.30
2023-04-15T16:55:31.304Z,59.92
2023-04-15T16:58:02.918Z,51.45
2023-04-15T17:00:31.662Z,23.95
2023-04-15T17:02:59.269Z,38.90
2023-04-15T17:05:30.798Z,9.63
2023-04-15T17:07:57.636Z,22.20
2023-04-15T17:10:24.564Z,56.42
2023-04-15T17:12:52.723Z,27.08
2023-04-15T17:15:19.961Z,8.38
2023-04-15T17:17:49.654Z,10.05
2023-04-15T17:20:17.544Z,6.97
2023-04-15T17:22:44.587Z,9.00
2023-04-15T17:25:11.219Z,8.73
2023-04-15T17:27:38.696Z,27.13
2023-04-15T17:30:07.233Z,25.45
2023-04-15T17:32:34.980Z,6.75
2023-04-15T17:35:04.320Z,12.00
2023-04-15T17:37:30.993Z,27.48
2023-04-15T17:39:57.577Z,24.23
2023-04-15T17:42:24.197Z,10.63
2023-04-15T17:44:50.925Z,9.57
2023-04-15T17:47:18.235Z,8.43
2023-04-15T17:49:44.967Z,13.13
2023-04-15T17:52:11.647Z,24.75
2023-04-15T17:54:38.303Z,9.63
2023-04-15T17:57:04.948Z,12.13
2023-04-15T17:59:33.761Z,15.25
2023-04-15T18:02:01.582Z,14.57
2023-04-15T18:04:28.706Z,14.75
2023-04-15T18:06:55.437Z,15.75
2023-04-15T18:09:22.204Z,18.38
2023-04-15T18:11:49.054Z,22.20
2023-04-15T18:14:27.101Z,14.95
2023-04-15T18:16:57.804Z,10.63
2023-04-15T18:19:25.835Z,4.97
2023-04-15T18:21:52.567Z,5.40
2023-04-15T18:24:19.362Z,7.82
2023-04-15T18:26:48.736Z,6.25
2023-04-15T18:29:15.865Z,6.82
2023-04-15T18:31:42.623Z,10.20
2023-04-15T18:34:09.338Z,9.65
2023-04-15T18:36:36.013Z,9.48
2023-04-15T18:39:02.810Z,11.80
2023-04-15T18:41:29.775Z,16.08
2023-04-15T18:43:56.472Z,9.23
2023-04-15T18:46:23.193Z,6.32
2023-04-15T18:48:49.882Z,9.43
2023-04-15T18:51:16.564Z,4.63
2023-04-15T18:53:43.220Z,14.20
2023-04-15T18:56:09.976Z,6.38
2023-04-15T18:59:25.980Z,6.03
2023-04-15T19:01:24.166Z,23.58
2023-04-15T19:03:51.046Z,10.27
2023-04-15T19:06:18.749Z,7.63
2023-04-15T19:08:45.486Z,7.38
2023-04-15T19:11:12.095Z,10.38
2023-04-15T19:13:38.733Z,5.95
2023-04-15T19:16:05.809Z,8.38
2023-04-15T19:18:32.419Z,6.45
2023-04-15T19:20:59.169Z,6.38
2023-04-15T19:23:25.953Z,7.00
2023-04-15T19:25:52.643Z,7.00
2023-04-15T19:28:19.637Z,7.47
2023-04-15T19:30:46.539Z,5.50
2023-04-15T19:33:13.260Z,6.10
2023-04-15T19:35:40.820Z,10.90
2023-04-15T19:38:09.726Z,18.52
2023-04-15T19:40:36.338Z,6.90
2023-04-15T19:43:02.979Z,5.53
2023-04-15T19:45:29.590Z,5.47
2023-04-15T19:47:56.281Z,5.35
2023-04-15T19:50:27.681Z,7.75
2023-04-15T19:52:54.412Z,5.45
2023-04-15T19:55:21.082Z,5.80
2023-04-15T19:57:47.807Z,5.25
2023-04-15T20:00:14.464Z,4.75
2023-04-15T20:02:41.361Z,6.53
2023-04-15T20:05:11.182Z,8.07
2023-04-15T20:07:39.654Z,7.55
2023-04-15T20:10:08.551Z,5.68
2023-04-15T20:12:50.533Z,3.88
2023-04-15T20:15:21.695Z,6.22
2023-04-15T20:17:48.359Z,5.80
2023-04-15T20:20:15.363Z,3.92
2023-04-15T20:22:42.199Z,6.05
2023-04-15T20:25:09.061Z,4.22
2023-04-15T20:27:35.810Z,4.47
2023-04-15T20:30:04.772Z,3.97
2023-04-15T20:32:35.437Z,4.43
2023-04-15T20:35:04.311Z,4.97
2023-04-15T20:37:33.303Z,3.45
2023-04-15T20:40:00.819Z,4.53
2023-04-15T20:42:28.619Z,4.28
2023-04-15T20:44:55.671Z,7.45
2023-04-15T20:47:23.464Z,7.68
2023-04-15T20:49:50.096Z,7.65
2023-04-15T20:52:16.776Z,10.45
2023-04-15T20:54:44.840Z,7.65
2023-04-15T20:57:11.482Z,8.63
2023-04-15T20:59:38.383Z,5.00
2023-04-15T21:02:06.199Z,4.85
2023-04-15T21:04:32.934Z,8.43
2023-04-15T21:06:59.587Z,12.30
2023-04-15T21:09:26.452Z,9.90
2023-04-15T21:12:01.227Z,6.95
2023-04-15T21:14:28.874Z,7.63
2023-04-15T21:16:58.261Z,5.55
2023-04-15T21:19:24.962Z,5.00
2023-04-15T21:21:51.655Z,5.38
2023-04-15T21:24:18.265Z,4.50
2023-04-15T21:26:44.880Z,4.68
2023-04-15T21:29:12.085Z,3.35
2023-04-15T21:31:39.111Z,5.72
2023-04-15T21:34:07.068Z,5.10
2023-04-15T21:36:34.019Z,5.30
2023-04-15T21:39:01.064Z,5.15
2023-04-15T21:41:28.174Z,5.78
2023-04-15T21:43:54.962Z,7.35
2023-04-15T21:46:25.319Z,5.85
2023-04-15T21:48:53.730Z,4.85
2023-04-15T21:51:20.601Z,6.63
2023-04-15T21:53:47.328Z,5.40
2023-04-15T21:56:14.042Z,5.00
2023-04-15T21:58:40.665Z,5.30
2023-04-15T22:01:07.451Z,4.15
2023-04-15T22:03:35.296Z,6.25
2023-04-15T22:06:03.451Z,8.38
2023-04-15T22:08:38.538Z,4.95
2023-04-15T22:11:21.597Z,4.90
2023-04-15T22:13:48.263Z,3.92
2023-04-15T22:16:14.851Z,5.05
2023-04-15T22:18:41.465Z,4.15
2023-04-15T22:21:08.563Z,4.57
2023-04-15T22:23:35.210Z,5.35
2023-04-15T22:26:02.000Z,5.00
2023-04-15T22:28:28.725Z,7.30
2023-04-15T22:30:56.113Z,7.47
2023-04-15T22:33:22.791Z,7.25
2023-04-15T22:35:49.428Z,11.18
2023-04-15T22:38:16.044Z,8.30
2023-04-15T22:40:42.612Z,9.10
2023-04-15T22:43:09.250Z,6.68
2023-04-15T22:45:36.085Z,8.23
2023-04-15T22:48:02.748Z,7.57
2023-04-15T22:50:29.415Z,8.25
2023-04-15T22:52:56.035Z,4.80
2023-04-15T22:55:22.768Z,5.45
2023-04-15T22:57:49.406Z,3.83
2023-04-15T23:00:16.062Z,5.43
2023-04-15T23:02:42.713Z,6.57
2023-04-15T23:05:12.749Z,4.82
2023-04-15T23:07:40.162Z,5.97
2023-04-15T23:10:08.108Z,6.88
2023-04-15T23:12:34.950Z,4.32
2023-04-15T23:15:01.624Z,6.57
2023-04-15T23:17:28.339Z,6.53
2023-04-15T23:19:54.942Z,3.58
2023-04-15T23:22:21.575Z,4.20
2023-04-15T23:24:48.275Z,5.28
2023-04-15T23:27:14.857Z,6.45
2023-04-15T23:29:41.734Z,4.30
2023-04-15T23:32:11.489Z,6.80
2023-04-15T23:34:38.137Z,5.72
2023-04-15T23:37:05.020Z,3.85
2023-04-15T23:39:32.122Z,5.00
2023-04-15T23:41:58.701Z,5.53
2023-04-15T23:44:25.300Z,5.15
2023-04-15T23:46:51.942Z,4.00
2023-04-15T23:49:20.232Z,4.18
2023-04-15T23:51:47.257Z,6.68
2023-04-15T23:54:15.332Z,4.80
2023-04-15T23:56:41.931Z,4.53
2023-04-15T23:59:08.894Z,4.88
